Time;durP1;ratioP1;P1;durP2;ratioP2;P2;SDS_P1;SDS_P2;PMS_P1;PMS_P2;Temp;Humidity;BMP_temperature;BMP_pressure;BME280_temperature;BME280_humidity;BME280_pressure;Samples;Min_cycle;Max_cycle;Signal;HPM_P1;HPM_P2
2023/08/18 00:00:54;;;;;;;7.70;6.60;;;;;;;-143.84;52.94;45024.31;5070208;28;20476;-55
2023/08/18 00:03:21;;;;;;;7.83;6.77;;;;;;;-143.84;53.13;44986.22;5070494;28;20626;-56
2023/08/18 00:05:50;;;;;;;18.53;6.90;;;;;;;-143.84;53.96;45001.47;5070683;28;20440;-55
2023/08/18 00:08:17;;;;;;;8.97;7.30;;;;;;;-143.84;54.11;45022.41;5070344;28;20447;-56
2023/08/18 00:10:44;;;;;;;11.43;7.27;;;;;;;-143.84;54.12;44999.56;5070124;28;20510;-56
2023/08/18 00:13:11;;;;;;;8.27;7.40;;;;;;;-143.84;54.41;45007.19;5069685;28;20506;-56
2023/08/18 00:15:38;;;;;;;11.53;7.37;;;;;;;-143.84;54.29;44988.13;5069912;28;20498;-56
2023/08/18 00:18:06;;;;;;;9.40;7.53;;;;;;;-143.84;54.99;44988.13;5069982;28;20881;-55
2023/08/18 00:20:33;;;;;;;10.10;6.83;;;;;;;-143.84;55.35;44982.41;5070013;28;20490;-56
2023/08/18 00:23:01;;;;;;;10.10;7.30;;;;;;;-143.84;55.55;45005.28;5070210;28;20845;-55
2023/08/18 00:25:28;;;;;;;13.30;6.90;;;;;;;-143.84;55.60;44997.66;5070000;28;20448;-55
2023/08/18 00:27:55;;;;;;;14.23;7.20;;;;;;;-143.84;56.42;44995.75;5070068;28;20494;-56
2023/08/18 00:30:24;;;;;;;12.60;8.40;;;;;;;-143.84;56.50;45005.28;5069848;28;21015;-55
2023/08/18 00:32:51;;;;;;;7.90;7.20;;;;;;;-143.84;57.39;44976.72;5069900;28;20452;-55
2023/08/18 00:35:18;;;;;;;16.63;7.73;;;;;;;-143.84;57.28;44999.56;5070158;28;20854;-55
2023/08/18 00:37:48;;;;;;;11.10;7.50;;;;;;;-143.84;57.59;44991.94;5069942;28;20437;-55
2023/08/18 00:40:17;;;;;;;7.83;7.13;;;;;;;-143.84;58.07;44999.56;5070117;28;20458;-55
2023/08/18 00:42:44;;;;;;;13.97;7.30;;;;;;;-143.84;58.47;45010.97;5069703;28;20476;-56
2023/08/18 00:45:12;;;;;;;10.40;7.57;;;;;;;-143.84;58.56;45014.78;5069694;28;20441;-56
2023/08/18 00:47:39;;;;;;;9.77;8.00;;;;;;;-143.84;59.00;45020.50;5070135;28;20472;-56
2023/08/18 00:50:09;;;;;;;16.40;7.87;;;;;;;-143.84;59.53;45001.47;5069900;28;21015;-55
2023/08/18 00:52:37;;;;;;;10.37;8.20;;;;;;;-143.84;59.55;44991.94;5070046;28;20567;-55
2023/08/18 00:55:06;;;;;;;12.43;8.10;;;;;;;-143.84;60.72;45018.59;5069540;28;20961;-55
2023/08/18 00:57:35;;;;;;;10.30;7.53;;;;;;;-143.84;60.88;44993.84;5069437;28;20436;-55
2023/08/18 01:00:03;;;;;;;10.00;7.73;;;;;;;-143.84;61.04;45010.97;5069466;28;20481;-55
2023/08/18 01:02:30;;;;;;;8.37;7.50;;;;;;;-143.84;61.73;44995.75;5069713;28;20484;-55
2023/08/18 01:05:01;;;;;;;9.90;7.53;;;;;;;-143.84;61.95;45003.38;5069675;28;20505;-56
2023/08/18 01:07:28;;;;;;;9.23;8.33;;;;;;;-143.84;62.00;45003.38;5069496;28;21259;-56
2023/08/18 01:09:55;;;;;;;18.87;8.80;;;;;;;-143.84;62.90;45026.22;5069516;28;20432;-55
2023/08/18 01:12:32;;;;;;;8.47;7.73;;;;;;;-143.84;63.08;45028.13;5069491;28;20452;-55
2023/08/18 01:15:11;;;;;;;8.60;7.80;;;;;;;-143.84;63.79;45010.97;5069580;28;20436;-56
2023/08/18 01:17:44;;;;;;;13.93;8.70;;;;;;;-143.84;64.41;45009.09;5069602;28;20451;-56
2023/08/18 01:20:13;;;;;;;16.33;8.57;;;;;;;-143.84;64.90;44997.66;5069618;28;20478;-56
2023/08/18 01:22:41;;;;;;;14.43;9.00;;;;;;;-143.84;64.98;45018.59;5069184;28;20476;-55
2023/08/18 01:25:10;;;;;;;9.70;7.77;;;;;;;-143.84;65.88;45003.38;5073521;28;20440;-55
2023/08/18 01:27:37;;;;;;;12.57;8.47;;;;;;;-143.84;66.12;45026.22;5073326;28;20501;-56
2023/08/18 01:30:05;;;;;;;11.17;8.10;;;;;;;-143.84;66.82;45030.03;5073618;28;20486;-55
2023/08/18 01:32:41;;;;;;;9.30;8.03;;;;;;;-143.84;67.32;45035.75;5073468;28;20785;-56
2023/08/18 01:35:11;;;;;;;12.80;8.30;;;;;;;-143.84;67.50;44999.56;5073376;28;20444;-55
2023/08/18 01:37:38;;;;;;;9.70;8.87;;;;;;;-143.84;67.87;45016.69;5073325;28;20440;-55
2023/08/18 01:40:08;;;;;;;12.00;8.30;;;;;;;-143.84;68.43;45014.78;5073568;28;21132;-56
2023/08/18 01:42:37;;;;;;;9.93;8.53;;;;;;;-143.84;68.80;45033.84;5072997;28;20472;-56
2023/08/18 01:45:04;;;;;;;9.60;8.27;;;;;;;-143.84;69.15;45012.88;5073166;28;20830;-55
2023/08/18 01:47:32;;;;;;;19.20;10.50;;;;;;;-143.84;69.62;45018.59;5073125;28;20443;-55
2023/08/18 01:49:59;;;;;;;10.50;8.70;;;;;;;-143.84;70.04;45037.66;5072938;28;20454;-56
2023/08/18 01:52:26;;;;;;;13.47;9.87;;;;;;;-143.84;70.04;45047.16;5073133;28;20463;-56
2023/08/18 01:54:53;;;;;;;9.87;8.30;;;;;;;-143.84;70.59;45047.16;5072727;28;20498;-56
2023/08/18 01:57:20;;;;;;;16.73;9.13;;;;;;;-143.84;70.64;45050.97;5072945;28;20437;-55
2023/08/18 01:59:48;;;;;;;12.63;9.37;;;;;;;-143.84;71.45;44986.22;5072827;28;20489;-56
2023/08/18 02:02:16;;;;;;;11.50;9.03;;;;;;;-143.84;71.86;44986.22;5072539;28;20476;-56
2023/08/18 02:04:43;;;;;;;21.63;9.20;;;;;;;-143.84;72.56;45022.41;5072747;28;20436;-56
2023/08/18 02:07:10;;;;;;;13.70;9.93;;;;;;;-143.84;72.89;45014.78;5072367;28;20429;-56
2023/08/18 02:09:38;;;;;;;16.63;9.50;;;;;;;-143.84;73.31;45003.38;5072670;28;20437;-56
2023/08/18 02:12:06;;;;;;;15.33;9.13;;;;;;;-143.84;73.76;45024.31;5072175;28;20440;-56
2023/08/18 02:14:33;;;;;;;10.13;8.80;;;;;;;-143.84;74.18;45028.13;5072085;28;20962;-56
2023/08/18 02:17:01;;;;;;;9.83;8.50;;;;;;;-143.84;74.59;45047.16;5072299;28;21231;-56
2023/08/18 02:19:28;;;;;;;17.57;9.43;;;;;;;-143.84;74.67;45024.31;5071985;28;20449;-56
2023/08/18 02:21:56;;;;;;;15.80;8.47;;;;;;;-143.84;74.45;45028.13;5072076;28;20448;-55
2023/08/18 02:24:23;;;;;;;14.33;8.23;;;;;;;-143.84;74.75;45039.53;5072124;28;20904;-55
2023/08/18 02:26:50;;;;;;;12.23;8.90;;;;;;;-143.84;74.89;45024.31;5072234;28;20841;-55
2023/08/18 02:29:17;;;;;;;9.67;8.20;;;;;;;-143.84;74.97;45022.41;5072372;28;20864;-56
2023/08/18 02:31:44;;;;;;;11.27;9.10;;;;;;;-143.84;74.97;45012.88;5072382;28;20494;-56
2023/08/18 02:34:12;;;;;;;14.33;8.50;;;;;;;-143.84;74.63;45022.41;5072463;28;20512;-56
2023/08/18 02:36:40;;;;;;;9.90;7.83;;;;;;;-143.84;74.45;45035.75;5071811;28;20433;-56
2023/08/18 02:39:07;;;;;;;12.07;8.67;;;;;;;-143.84;74.64;45041.44;5072417;28;20453;-56
2023/08/18 02:41:34;;;;;;;13.90;8.20;;;;;;;-143.84;74.46;45014.78;5072261;28;20448;-55
2023/08/18 02:44:03;;;;;;;10.47;8.10;;;;;;;-143.84;74.31;45022.41;5071980;28;20481;-56
2023/08/18 02:46:30;;;;;;;12.13;7.63;;;;;;;-143.84;73.88;45031.94;5071921;28;20444;-56
2023/08/18 02:48:57;;;;;;;8.60;7.40;;;;;;;-143.84;73.79;45068.13;5071974;28;20445;-55
2023/08/18 02:51:25;;;;;;;16.03;7.70;;;;;;;-143.84;73.84;45010.97;5071764;28;20490;-56
2023/08/18 02:53:52;;;;;;;8.10;7.27;;;;;;;-143.84;73.28;45018.59;5071961;28;20445;-56
2023/08/18 02:56:19;;;;;;;18.60;9.30;;;;;;;-143.84;73.06;45045.25;5071443;28;20440;-56
2023/08/18 02:58:47;;;;;;;13.03;8.00;;;;;;;-143.84;72.79;45028.13;5072058;28;20433;-56
2023/08/18 03:01:14;;;;;;;14.93;8.33;;;;;;;-143.84;73.01;45031.94;5071451;28;20534;-55
2023/08/18 03:03:41;;;;;;;14.60;7.10;;;;;;;-143.84;72.94;45016.69;5071261;28;20990;-55
2023/08/18 03:06:09;;;;;;;10.23;7.13;;;;;;;-143.84;72.94;45039.53;5071621;28;20436;-55
2023/08/18 03:08:39;;;;;;;17.57;7.30;;;;;;;-143.84;72.74;45031.94;5071599;28;20443;-56
2023/08/18 03:11:06;;;;;;;10.17;7.13;;;;;;;-143.84;72.55;45037.66;5071205;28;20445;-56
2023/08/18 03:13:33;;;;;;;12.03;7.17;;;;;;;-143.84;72.77;45031.94;5071723;28;20977;-55
2023/08/18 03:16:01;;;;;;;11.30;7.10;;;;;;;-143.84;72.97;45020.50;5071972;28;20437;-55
2023/08/18 03:18:28;;;;;;;11.23;7.90;;;;;;;-143.84;72.95;45022.41;5071622;28;20444;-56
2023/08/18 03:20:59;;;;;;;13.80;6.93;;;;;;;-143.84;73.09;45035.75;5071651;28;20436;-56
2023/08/18 03:23:26;;;;;;;10.27;6.63;;;;;;;-143.84;73.23;45030.03;5078784;28;20476;-55
2023/08/18 03:26:02;;;;;;;9.17;7.00;;;;;;;-143.84;73.00;45018.59;5091105;28;20448;-56
2023/08/18 03:28:29;;;;;;;18.00;7.23;;;;;;;-143.84;73.30;45014.78;5091136;28;20496;-55
2023/08/18 03:31:00;;;;;;;9.30;6.90;;;;;;;-143.84;73.27;45035.75;5091125;28;20485;-56
2023/08/18 03:33:27;;;;;;;10.63;7.50;;;;;;;-143.84;73.16;45022.41;5091347;28;20523;-55
2023/08/18 03:35:54;;;;;;;10.97;7.03;;;;;;;-143.84;73.16;45045.25;5091121;28;20447;-56
2023/08/18 03:38:21;;;;;;;8.90;6.93;;;;;;;-143.84;72.93;45022.41;5090967;28;20501;-55
2023/08/18 03:40:49;;;;;;;8.83;7.30;;;;;;;-143.84;72.77;45035.75;5091148;28;20853;-56
2023/08/18 03:43:18;;;;;;;7.87;6.43;;;;;;;-143.84;72.73;45014.78;5091081;28;21012;-55
2023/08/18 03:45:47;;;;;;;8.33;6.40;;;;;;;-143.84;72.33;45030.03;5091242;28;20526;-55
2023/08/18 03:48:14;;;;;;;11.57;6.80;;;;;;;-143.84;72.22;45007.19;5090963;28;20466;-55
2023/08/18 03:50:41;;;;;;;9.13;6.17;;;;;;;-143.84;72.01;45049.06;5091174;28;20814;-56
2023/08/18 03:53:08;;;;;;;7.17;6.47;;;;;;;-143.84;70.82;45090.97;5091164;28;20485;-56
2023/08/18 03:55:35;;;;;;;14.80;6.67;;;;;;;-143.84;69.69;45047.16;5090879;28;20489;-55
2023/08/18 03:58:02;;;;;;;6.30;5.70;;;;;;;-143.84;68.62;45031.94;5090789;28;20937;-56
2023/08/18 04:00:31;;;;;;;10.03;6.37;;;;;;;-143.84;67.58;45009.09;5090457;28;20544;-56
2023/08/18 04:02:59;;;;;;;8.70;6.00;;;;;;;-143.84;66.59;44991.94;5090529;28;20471;-56
2023/08/18 04:05:26;;;;;;;9.00;6.33;;;;;;;-143.84;66.40;45005.28;5091201;28;20859;-56
2023/08/18 04:07:53;;;;;;;10.67;5.90;;;;;;;-143.84;65.96;45028.13;5090324;28;20428;-56
2023/08/18 04:10:20;;;;;;;13.23;6.30;;;;;;;-143.84;65.65;45031.94;5090835;28;20439;-56
2023/08/18 04:12:47;;;;;;;11.50;5.73;;;;;;;-143.84;63.45;45014.78;5090464;28;20489;-56
2023/08/18 04:15:15;;;;;;;8.77;6.13;;;;;;;-143.84;61.98;45018.59;5090551;28;20870;-56
2023/08/18 04:17:43;;;;;;;5.77;4.83;;;;;;;-143.84;61.39;45010.97;5090459;28;20431;-56
2023/08/18 04:20:11;;;;;;;6.40;5.13;;;;;;;-143.84;61.28;45003.38;5090690;28;20505;-56
2023/08/18 04:22:38;;;;;;;10.43;5.07;;;;;;;-143.84;60.22;44991.94;5090376;28;20440;-56
2023/08/18 04:25:07;;;;;;;10.13;5.27;;;;;;;-143.84;60.24;45014.78;5090645;28;20822;-56
2023/08/18 04:27:34;;;;;;;6.97;5.17;;;;;;;-143.84;60.58;45009.09;5090489;28;20585;-56
2023/08/18 04:30:03;;;;;;;6.00;5.20;;;;;;;-143.84;60.15;45028.13;5089831;28;20543;-56
2023/08/18 04:32:30;;;;;;;7.30;5.03;;;;;;;-143.84;60.16;45018.59;5090247;28;20432;-56
2023/08/18 04:35:01;;;;;;;14.73;6.97;;;;;;;-143.84;59.22;45001.47;5090465;28;21258;-56
2023/08/18 04:37:28;;;;;;;10.67;4.87;;;;;;;-143.84;58.02;44999.56;5090049;28;20930;-56
2023/08/18 04:39:55;;;;;;;7.57;5.40;;;;;;;-143.84;56.91;45005.28;5090164;28;20428;-56
2023/08/18 04:42:22;;;;;;;15.37;4.80;;;;;;;-143.84;55.83;44995.75;5089845;28;20819;-56
2023/08/18 04:44:49;;;;;;;7.43;4.90;;;;;;;-143.84;54.79;44972.91;5089976;28;20501;-56
2023/08/18 04:47:16;;;;;;;7.17;5.00;;;;;;;-143.84;54.27;44991.94;5089970;28;20439;-56
2023/08/18 04:49:44;;;;;;;5.50;5.00;;;;;;;-143.84;53.03;44974.81;5089735;28;20522;-56
2023/08/18 04:52:14;;;;;;;7.60;5.40;;;;;;;-143.84;51.74;44991.94;5089862;28;20991;-56
2023/08/18 04:54:41;;;;;;;10.33;5.40;;;;;;;-143.84;50.35;44961.47;5089881;28;20534;-56
2023/08/18 04:57:08;;;;;;;4.83;4.53;;;;;;;-143.84;49.20;44957.66;5089878;28;20472;-56
2023/08/18 04:59:35;;;;;;;6.40;4.30;;;;;;;-143.84;48.71;44984.31;5291553;22;20566;-55
2023/08/18 05:02:02;;;;;;;10.37;4.87;;;;;;;-143.84;47.70;44955.75;5035422;28;20500;-55
2023/08/18 05:04:29;;;;;;;6.73;5.13;;;;;;;-143.84;47.29;44955.75;5028818;28;21060;-55
2023/08/18 05:06:56;;;;;;;13.80;5.50;;;;;;;-143.84;47.04;44927.19;5029045;28;20521;-55
2023/08/18 05:09:25;;;;;;;7.40;4.43;;;;;;;-143.84;46.29;44955.75;5029093;28;20438;-55
2023/08/18 05:11:52;;;;;;;10.37;4.97;;;;;;;-143.84;46.24;44911.97;5028919;28;20497;-55
2023/08/18 05:14:19;;;;;;;8.13;5.00;;;;;;;-143.84;46.34;44978.63;5028783;28;20439;-55
2023/08/18 05:16:46;;;;;;;13.10;5.53;;;;;;;-143.84;45.61;44923.41;5045004;28;20480;-55
2023/08/18 05:19:13;;;;;;;13.70;5.43;;;;;;;-143.84;45.75;44919.59;5048471;28;20434;-55
2023/08/18 05:21:41;;;;;;;5.90;4.83;;;;;;;-143.84;45.67;44925.31;5048488;28;20458;-55
2023/08/18 05:24:08;;;;;;;6.90;4.63;;;;;;;-143.84;46.09;44946.25;5048743;28;20485;-55
2023/08/18 05:26:36;;;;;;;5.70;4.50;;;;;;;-143.84;46.12;44925.31;5048729;28;20461;-55
2023/08/18 05:29:04;;;;;;;8.70;5.23;;;;;;;-143.84;46.58;44923.41;5048537;28;20491;-55
2023/08/18 05:31:32;;;;;;;6.50;4.70;;;;;;;-143.84;46.58;44946.25;5048366;28;20464;-55
2023/08/18 05:33:59;;;;;;;8.43;4.30;;;;;;;-143.84;46.46;44942.44;5048440;28;20449;-55
2023/08/18 05:36:26;;;;;;;12.53;5.07;;;;;;;-143.84;45.92;44896.75;5048433;28;20474;-55
2023/08/18 05:38:53;;;;;;;9.00;5.23;;;;;;;-143.84;45.83;44932.91;5048772;28;20437;-55
2023/08/18 05:41:20;;;;;;;8.53;4.77;;;;;;;-143.84;45.29;44910.06;5048461;28;20442;-55
2023/08/18 05:43:49;;;;;;;7.07;4.57;;;;;;;-143.84;44.50;44931.00;5048081;28;20481;-55
2023/08/18 05:46:16;;;;;;;16.30;4.23;;;;;;;-143.84;44.35;44911.97;5048365;28;20783;-55
2023/08/18 05:48:43;;;;;;;8.37;4.30;;;;;;;-143.84;43.56;44896.75;5048381;28;20450;-55
2023/08/18 05:51:10;;;;;;;10.93;4.90;;;;;;;-143.84;43.02;44908.16;5048315;28;20854;-55
2023/08/18 05:53:37;;;;;;;4.73;4.33;;;;;;;-143.84;42.68;44925.31;5048371;28;20507;-55
2023/08/18 05:56:05;;;;;;;7.13;4.37;;;;;;;-143.84;42.42;44871.97;5048144;28;20528;-55
2023/08/18 05:58:32;;;;;;;12.10;3.93;;;;;;;-143.84;42.01;44929.09;5048058;28;20449;-55
2023/08/18 06:01:01;;;;;;;9.67;4.23;;;;;;;-143.84;41.40;44913.88;5048385;28;20445;-55
2023/08/18 06:03:30;;;;;;;15.47;4.90;;;;;;;-143.84;40.82;44898.66;5048579;28;20441;-55
2023/08/18 06:06:00;;;;;;;6.00;4.20;;;;;;;-143.84;39.96;44875.78;5048063;28;20446;-55
2023/08/18 06:08:27;;;;;;;5.47;4.00;;;;;;;-143.84;39.12;44885.31;5048397;28;20444;-55
2023/08/18 06:10:54;;;;;;;8.77;4.20;;;;;;;-143.84;39.94;44862.47;5050117;28;20433;-55
2023/08/18 06:13:21;;;;;;;8.30;4.90;;;;;;;-143.84;40.00;44894.84;5051926;28;20476;-55
2023/08/18 06:15:52;;;;;;;11.00;4.80;;;;;;;-143.84;39.28;44875.78;5051683;28;20438;-55
2023/08/18 06:18:20;;;;;;;12.33;4.30;;;;;;;-143.84;38.89;44870.09;5051691;28;20500;-56
2023/08/18 06:20:48;;;;;;;9.43;3.83;;;;;;;-143.84;38.95;44849.13;5051771;28;20445;-55
2023/08/18 06:23:15;;;;;;;5.67;3.80;;;;;;;-143.84;38.31;44864.38;5051736;28;20437;-55
2023/08/18 06:25:42;;;;;;;4.60;4.20;;;;;;;-143.84;37.97;44830.09;5051402;28;20476;-55
2023/08/18 06:28:09;;;;;;;8.17;3.80;;;;;;;-143.84;38.12;44812.97;5051553;28;20448;-55
2023/08/18 06:30:36;;;;;;;21.17;4.17;;;;;;;-143.84;37.90;44858.66;5051913;28;20993;-55
2023/08/18 06:33:03;;;;;;;8.50;4.13;;;;;;;-143.84;37.51;44866.28;5051774;28;20433;-55
2023/08/18 06:35:32;;;;;;;4.63;3.90;;;;;;;-143.84;37.59;44871.97;5051375;28;20430;-55
2023/08/18 06:37:59;;;;;;;6.70;4.07;;;;;;;-143.84;36.45;44833.91;5051519;28;20442;-55
2023/08/18 06:40:26;;;;;;;10.93;4.23;;;;;;;-143.84;36.71;44843.44;5051146;28;20445;-55
2023/08/18 06:42:53;;;;;;;5.13;3.40;;;;;;;-143.84;36.11;44833.91;5051405;28;20935;-55
2023/08/18 06:45:20;;;;;;;5.80;3.77;;;;;;;-143.84;36.50;44803.44;5051209;28;20481;-55
2023/08/18 06:47:48;;;;;;;7.53;4.17;;;;;;;-143.84;36.64;44852.94;5051623;28;20924;-55
2023/08/18 06:50:15;;;;;;;11.40;3.97;;;;;;;-143.84;36.48;44792.00;5051140;28;20441;-55
2023/08/18 06:52:43;;;;;;;12.13;3.57;;;;;;;-143.84;36.43;44843.44;5051059;28;20446;-55
2023/08/18 06:55:13;;;;;;;8.40;3.60;;;;;;;-143.84;35.91;44793.91;5051030;28;20456;-55
2023/08/18 06:57:41;;;;;;;3.87;3.57;;;;;;;-143.84;35.96;44864.38;5051071;28;20499;-55
2023/08/18 07:00:10;;;;;;;10.00;3.17;;;;;;;-143.84;36.11;44843.44;5051052;28;20514;-55
2023/08/18 07:02:38;;;;;;;12.00;3.60;;;;;;;-143.84;36.28;44832.00;5051050;28;20440;-55
2023/08/18 07:05:06;;;;;;;5.13;3.40;;;;;;;-143.84;36.61;44812.97;5050911;28;20490;-55
2023/08/18 07:07:34;;;;;;;6.30;3.63;;;;;;;-143.84;36.30;44812.97;5050787;28;20445;-55
2023/08/18 07:10:03;;;;;;;9.17;4.00;;;;;;;-143.84;36.56;44841.53;5050726;28;21026;-55
2023/08/18 07:12:30;;;;;;;4.30;3.93;;;;;;;-143.84;35.63;44790.13;5050502;28;20442;-55
2023/08/18 07:14:57;;;;;;;20.23;4.57;;;;;;;-143.84;35.59;44833.91;5050545;28;20492;-55
2023/08/18 07:17:24;;;;;;;9.40;3.60;;;;;;;-143.84;35.40;44786.31;5050824;28;20433;-55
2023/08/18 07:19:51;;;;;;;6.13;3.40;;;;;;;-143.84;35.51;44809.16;5050688;28;20438;-55
2023/08/18 07:22:18;;;;;;;3.20;3.00;;;;;;;-143.84;35.40;44805.34;5050466;28;20433;-55
2023/08/18 07:24:46;;;;;;;3.60;3.40;;;;;;;-143.84;34.65;44799.63;5050573;28;20481;-55
2023/08/18 07:27:14;;;;;;;4.37;3.00;;;;;;;-143.84;34.52;44797.72;5050367;28;21006;-55
2023/08/18 07:29:41;;;;;;;10.07;3.50;;;;;;;-143.84;34.58;44824.38;5050661;28;20445;-55
2023/08/18 07:32:09;;;;;;;9.40;3.50;;;;;;;-143.84;34.70;44818.66;5050147;28;20496;-55
2023/08/18 07:34:36;;;;;;;10.17;3.37;;;;;;;-143.84;35.36;44826.28;5050281;28;20998;-55
2023/08/18 07:37:04;;;;;;;5.70;3.43;;;;;;;-143.84;35.62;44788.22;5050411;28;20446;-55
2023/08/18 07:39:31;;;;;;;5.80;3.60;;;;;;;-143.84;36.27;44832.00;5050401;28;21096;-55
2023/08/18 07:41:58;;;;;;;9.70;3.70;;;;;;;-143.84;36.20;44816.78;5050061;28;20868;-55
2023/08/18 07:44:26;;;;;;;9.07;3.80;;;;;;;-143.84;35.05;44805.34;5049812;28;20481;-55
2023/08/18 07:46:53;;;;;;;7.33;3.40;;;;;;;-143.84;35.50;44792.00;5049851;28;20441;-55
2023/08/18 07:49:21;;;;;;;3.23;2.93;;;;;;;-143.84;35.49;44795.81;5049910;28;20444;-55
2023/08/18 07:51:48;;;;;;;7.03;3.63;;;;;;;-143.84;35.06;44797.72;5049912;28;20499;-55
2023/08/18 07:54:15;;;;;;;4.60;3.67;;;;;;;-143.84;34.81;44799.63;5050226;28;20445;-55
2023/08/18 07:56:42;;;;;;;5.43;3.63;;;;;;;-143.84;33.97;44797.72;5049478;28;20437;-55
2023/08/18 07:59:09;;;;;;;9.50;3.30;;;;;;;-143.84;33.00;44784.41;5049476;28;20559;-55
2023/08/18 08:01:38;;;;;;;4.60;3.57;;;;;;;-143.84;33.19;44769.16;5049673;28;20464;-54
2023/08/18 08:04:05;;;;;;;7.20;4.27;;;;;;;-143.84;33.43;44812.97;5049815;28;20445;-55
2023/08/18 08:06:32;;;;;;;6.50;3.10;;;;;;;-143.84;33.56;44771.06;5049509;28;20965;-55
2023/08/18 08:08:59;;;;;;;5.20;3.33;;;;;;;-143.84;33.80;44824.38;5049676;28;20438;-55
2023/08/18 08:11:26;;;;;;;5.30;3.47;;;;;;;-143.84;33.67;44795.81;5049586;28;21086;-55
2023/08/18 08:13:54;;;;;;;8.10;4.03;;;;;;;-143.84;33.91;44797.72;5049216;28;20442;-55
2023/08/18 08:16:21;;;;;;;12.50;3.30;;;;;;;-143.84;34.00;44820.56;5049692;28;20440;-55
2023/08/18 08:18:50;;;;;;;5.07;4.00;;;;;;;-143.84;34.05;44828.19;5049577;28;20449;-54
2023/08/18 08:21:17;;;;;;;8.90;3.47;;;;;;;-143.84;33.57;44830.09;5049521;28;20949;-55
2023/08/18 08:23:44;;;;;;;10.30;3.97;;;;;;;-143.84;33.39;44805.34;5049221;28;20434;-54
2023/08/18 08:26:11;;;;;;;7.23;3.60;;;;;;;-143.84;32.80;44805.34;5049264;28;20564;-55
2023/08/18 08:28:38;;;;;;;5.40;3.27;;;;;;;-143.84;32.89;44824.38;5049275;28;20820;-55
2023/08/18 08:31:05;;;;;;;3.27;2.97;;;;;;;-143.84;32.75;44778.69;5049157;28;20511;-55
2023/08/18 08:33:33;;;;;;;4.40;3.00;;;;;;;-143.84;33.52;44767.25;5048423;28;20471;-55
2023/08/18 08:36:02;;;;;;;5.57;3.83;;;;;;;-143.84;33.14;44776.78;5049048;28;20525;-55
2023/08/18 08:38:29;;;;;;;3.53;3.23;;;;;;;-143.84;33.31;44818.66;5048915;28;20457;-55
2023/08/18 08:40:57;;;;;;;5.27;3.90;;;;;;;-143.84;33.61;44797.72;5048918;28;20437;-54
2023/08/18 08:43:24;;;;;;;14.23;3.70;;;;;;;-143.84;34.69;44793.91;5049222;28;20445;-54
2023/08/18 08:45:53;;;;;;;5.77;3.40;;;;;;;-143.84;34.83;44824.38;5049542;28;20493;-55
2023/08/18 08:48:22;;;;;;;4.20;3.33;;;;;;;-143.84;34.80;44801.53;5049123;28;20846;-55
2023/08/18 08:50:55;;;;;;;4.03;3.17;;;;;;;-143.84;35.58;44797.72;5048902;28;20438;-55
2023/08/18 08:53:31;;;;;;;14.03;4.50;;;;;;;-143.84;34.36;44795.81;5048816;28;20524;-54
2023/08/18 08:56:02;;;;;;;10.10;3.60;;;;;;;-143.84;35.08;44812.97;5049073;28;21136;-54
2023/08/18 08:58:32;;;;;;;7.07;3.70;;;;;;;-143.84;34.89;44805.34;5048857;28;20468;-55
2023/08/18 09:01:01;;;;;;;8.03;3.43;;;;;;;-143.84;35.38;44814.88;5048839;28;20485;-55
2023/08/18 09:03:30;;;;;;;7.20;3.30;;;;;;;-143.84;35.69;44782.50;5048414;28;20446;-55
2023/08/18 09:05:57;;;;;;;7.20;3.63;;;;;;;-143.84;35.22;44807.25;5048353;28;21036;-54
2023/08/18 09:08:26;;;;;;;5.57;3.87;;;;;;;-143.84;35.71;44801.53;5048386;28;20955;-55
2023/08/18 09:10:53;;;;;;;10.73;4.30;;;;;;;-143.84;35.48;44826.28;5048692;28;20449;-55
2023/08/18 09:13:20;;;;;;;8.10;4.33;;;;;;;-143.84;35.19;44797.72;5048119;28;20446;-55
2023/08/18 09:15:48;;;;;;;8.37;4.13;;;;;;;-143.84;36.30;44807.25;5048111;28;20441;-55
2023/08/18 09:18:16;;;;;;;7.60;3.83;;;;;;;-143.84;35.19;44811.06;5048656;28;20977;-55
2023/08/18 09:20:44;;;;;;;8.30;3.80;;;;;;;-143.84;35.15;44839.63;5048353;28;21084;-54
2023/08/18 09:23:12;;;;;;;6.07;3.50;;;;;;;-143.84;35.07;44803.44;5048550;28;20529;-54
2023/08/18 09:25:40;;;;;;;4.87;3.37;;;;;;;-143.84;35.18;44795.81;5048441;28;20473;-54
2023/08/18 09:28:08;;;;;;;5.10;3.00;;;;;;;-143.84;34.64;44839.63;5039899;28;20554;-55
2023/08/18 09:30:35;;;;;;;10.70;3.33;;;;;;;-143.84;34.29;44803.44;5044469;28;20499;-54
2023/08/18 09:33:02;;;;;;;9.20;3.43;;;;;;;-143.84;34.70;44824.38;5048665;28;20437;-55
2023/08/18 09:35:33;;;;;;;10.63;3.57;;;;;;;-143.84;35.89;44797.72;5048454;28;20449;-55
2023/08/18 09:38:01;;;;;;;7.73;3.33;;;;;;;-143.84;36.61;44790.13;5048857;28;20422;-55
2023/08/18 09:40:29;;;;;;;10.13;3.60;;;;;;;-143.84;37.30;44771.06;5048744;28;20442;-55
2023/08/18 09:42:58;;;;;;;6.93;3.77;;;;;;;-143.84;36.97;44818.66;5047806;28;20445;-55
2023/08/18 09:45:26;;;;;;;5.70;3.60;;;;;;;-143.84;37.33;44790.13;5051019;28;20884;-54
2023/08/18 09:47:55;;;;;;;6.60;3.70;;;;;;;-143.84;37.79;44845.31;5052185;28;20446;-54
2023/08/18 09:50:24;;;;;;;5.73;2.73;;;;;;;-143.84;38.32;44805.34;5052360;28;20829;-54
2023/08/18 09:52:54;;;;;;;10.60;3.67;;;;;;;-143.84;38.49;44809.16;5052034;28;20433;-55
2023/08/18 09:55:28;;;;;;;19.63;3.57;;;;;;;-143.84;38.24;44782.50;5052051;28;20507;-55
2023/08/18 09:58:02;;;;;;;7.23;3.87;;;;;;;-143.84;38.83;44809.16;5051558;28;20652;-55
2023/08/18 10:00:31;;;;;;;8.63;3.77;;;;;;;-143.84;38.02;44803.44;5051865;28;20558;-55
2023/08/18 10:03:03;;;;;;;6.70;3.83;;;;;;;-143.84;38.01;44803.44;5052048;28;20452;-55
2023/08/18 10:05:30;;;;;;;18.23;3.30;;;;;;;-143.84;38.66;44833.91;5051766;28;20488;-55
2023/08/18 10:07:57;;;;;;;6.17;3.50;;;;;;;-143.84;39.21;44826.28;5052074;28;20445;-55
2023/08/18 10:10:25;;;;;;;6.10;3.23;;;;;;;-143.84;39.00;44801.53;5052421;28;20494;-55
2023/08/18 10:12:53;;;;;;;18.37;4.13;;;;;;;-143.84;40.29;44824.38;5051274;28;20467;-54
2023/08/18 10:15:22;;;;;;;14.03;3.57;;;;;;;-143.84;39.23;44847.22;5051816;28;21012;-54
2023/08/18 10:17:49;;;;;;;7.13;3.57;;;;;;;-143.84;39.56;44847.22;5051668;28;20784;-55
2023/08/18 10:20:17;;;;;;;4.93;3.30;;;;;;;-143.84;39.15;44858.66;5051696;28;20890;-54
2023/08/18 10:22:44;;;;;;;12.40;4.07;;;;;;;-143.84;39.23;44847.22;5051636;28;20449;-55
2023/08/18 10:25:24;;;;;;;11.10;3.10;;;;;;;-143.84;39.40;44860.56;5051556;28;20903;-54
2023/08/18 10:27:51;;;;;;;19.50;3.53;;;;;;;-143.84;39.22;44858.66;5050919;28;20525;-54
2023/08/18 10:30:28;;;;;;;4.50;3.37;;;;;;;-143.84;39.41;44852.94;5051685;28;20806;-54
2023/08/18 10:33:03;;;;;;;3.77;2.87;;;;;;;-143.84;37.70;44879.59;5051449;28;20546;-54
2023/08/18 10:35:31;;;;;;;7.10;3.33;;;;;;;-143.84;36.80;44826.28;5051197;28;20532;-54
2023/08/18 10:38:01;;;;;;;10.53;2.70;;;;;;;-143.84;37.24;44854.84;5051015;28;20456;-54
2023/08/18 10:40:30;;;;;;;4.97;2.80;;;;;;;-143.84;36.59;44839.63;5051641;28;20769;-54
2023/08/18 10:43:00;;;;;;;12.53;3.93;;;;;;;-143.84;37.33;44835.81;5051271;28;20487;-55
2023/08/18 10:45:30;;;;;;;5.77;2.70;;;;;;;-143.84;36.87;44849.13;5050910;28;20516;-55
2023/08/18 10:47:59;;;;;;;6.23;3.13;;;;;;;-143.84;36.47;44828.19;5050868;28;20429;-54
2023/08/18 10:50:29;;;;;;;9.13;3.00;;;;;;;-143.84;36.19;44822.47;5050343;28;20445;-54
2023/08/18 10:52:56;;;;;;;6.33;2.63;;;;;;;-143.84;35.65;44847.22;5061441;28;20445;-54
2023/08/18 10:55:23;;;;;;;6.47;2.93;;;;;;;-143.84;36.52;44851.03;5056969;28;20955;-54
2023/08/18 10:57:51;;;;;;;9.13;3.30;;;;;;;-143.84;36.04;44879.59;5059110;28;20436;-54
2023/08/18 11:00:19;;;;;;;6.67;3.33;;;;;;;-143.84;36.87;44873.88;5050501;28;20478;-54
2023/08/18 11:02:49;;;;;;;5.33;2.47;;;;;;;-143.84;37.00;44881.50;5050184;28;20540;-54
2023/08/18 11:05:18;;;;;;;9.27;3.40;;;;;;;-143.84;37.33;44868.19;5050611;28;20524;-54
2023/08/18 11:07:45;;;;;;;6.60;3.03;;;;;;;-143.84;38.01;44873.88;5050836;28;20449;-54
2023/08/18 11:10:20;;;;;;;8.90;3.10;;;;;;;-143.84;37.75;44854.84;5050740;28;21175;-54
2023/08/18 11:12:48;;;;;;;9.47;3.20;;;;;;;-143.84;37.11;44881.50;5048410;28;20945;-54
2023/08/18 11:15:16;;;;;;;7.57;3.30;;;;;;;-143.84;37.92;44864.38;5050400;28;20442;-54
2023/08/18 11:17:44;;;;;;;4.20;3.27;;;;;;;-143.84;37.77;44885.31;5050820;28;21241;-54